Time;durP1;ratioP1;P1;durP2;ratioP2;P2;SDS_P1;SDS_P2;PMS_P1;PMS_P2;Temp;Humidity;BMP_temperature;BMP_pressure;BME280_temperature;BME280_humidity;BME280_pressure;Samples;Min_cycle;Max_cycle;Signal;HPM_P1;HPM_P2
2021/04/16 00:01:47;;;;;;;7.80;6.93;;;4.40;97.90;;;;;;5016408;28;20197;-73
2021/04/16 00:04:12;;;;;;;9.73;7.20;;;4.40;97.90;;;;;;5015468;28;20182;-73
2021/04/16 00:06:38;;;;;;;8.67;7.27;;;4.40;98.00;;;;;;5015691;28;20205;-73
2021/04/16 00:09:04;;;;;;;7.10;6.17;;;4.50;98.00;;;;;;5015681;28;20181;-73
2021/04/16 00:11:30;;;;;;;6.70;6.00;;;4.60;98.20;;;;;;5015619;28;20255;-72
2021/04/16 00:13:56;;;;;;;10.20;6.47;;;4.60;98.00;;;;;;5015053;28;20416;-73
2021/04/16 00:16:26;;;;;;;7.60;6.30;;;4.70;97.90;;;;;;5015034;28;20251;-72
2021/04/16 00:18:52;;;;;;;8.93;6.97;;;4.70;97.80;;;;;;5015182;28;20408;-73
2021/04/16 00:21:18;;;;;;;7.40;6.70;;;4.70;97.70;;;;;;5015168;28;20421;-73
2021/04/16 00:23:44;;;;;;;6.63;6.00;;;4.80;97.60;;;;;;5014920;28;20210;-73
2021/04/16 00:26:12;;;;;;;7.80;6.77;;;4.80;97.50;;;;;;5015212;28;20893;-72
2021/04/16 00:28:38;;;;;;;7.43;6.77;;;4.80;97.60;;;;;;5014940;28;20890;-73
2021/04/16 00:31:09;;;;;;;6.50;5.80;;;4.80;97.80;;;;;;5014636;28;20546;-73
2021/04/16 00:33:35;;;;;;;7.73;6.47;;;4.80;98.00;;;;;;5015022;28;20797;-72
2021/04/16 00:36:01;;;;;;;8.40;6.70;;;4.80;98.20;;;;;;5014559;28;20429;-73
2021/04/16 00:38:26;;;;;;;6.80;6.03;;;4.80;98.40;;;;;;5035601;28;20209;-73
2021/04/16 00:40:58;;;;;;;8.70;6.50;;;4.70;98.50;;;;;;5036894;28;20202;-73
2021/04/16 00:43:29;;;;;;;7.83;6.23;;;4.70;98.50;;;;;;5021002;28;20223;-72
2021/04/16 00:46:11;;;;;;;9.23;7.40;;;4.70;98.70;;;;;;5015264;28;20420;-72
2021/04/16 00:48:41;;;;;;;8.60;7.10;;;4.70;98.70;;;;;;5014790;28;20848;-73
2021/04/16 00:51:12;;;;;;;8.13;7.30;;;4.70;98.90;;;;;;5015353;28;20470;-73
2021/04/16 00:53:39;;;;;;;8.07;6.80;;;4.80;99.20;;;;;;5014610;28;20824;-72
2021/04/16 00:56:05;;;;;;;7.87;6.53;;;4.80;99.00;;;;;;5014905;28;20504;-72
2021/04/16 00:58:32;;;;;;;8.60;6.40;;;4.90;98.90;;;;;;5014992;28;20430;-73
2021/04/16 01:01:00;;;;;;;10.30;6.90;;;4.90;98.70;;;;;;5013963;28;20425;-73
2021/04/16 01:03:26;;;;;;;8.40;6.40;;;5.00;98.60;;;;;;5013949;28;20935;-73
2021/04/16 01:05:56;;;;;;;9.43;7.27;;;5.10;98.50;;;;;;5014721;28;20409;-72
2021/04/16 01:08:22;;;;;;;8.17;6.90;;;5.20;98.30;;;;;;5014676;28;20341;-73
2021/04/16 01:10:51;;;;;;;6.73;5.90;;;5.30;98.20;;;;;;5014771;28;20544;-72
2021/04/16 01:13:19;;;;;;;6.90;6.23;;;5.30;98.20;;;;;;5013030;28;20210;-73
2021/04/16 01:15:52;;;;;;;6.43;5.73;;;5.30;98.20;;;;;;5012727;28;20520;-73
2021/04/16 01:18:21;;;;;;;8.70;6.77;;;5.40;98.10;;;;;;5015156;28;20455;-73
2021/04/16 01:20:49;;;;;;;6.30;5.73;;;5.50;98.10;;;;;;5012975;28;20417;-73
2021/04/16 01:23:36;;;;;;;6.80;6.20;;;5.50;97.90;;;;;;5014150;28;20405;-73
2021/04/16 01:26:05;;;;;;;6.50;5.90;;;5.40;97.80;;;;;;4995388;28;20497;-72
2021/04/16 01:28:31;;;;;;;7.10;5.80;;;5.30;98.00;;;;;;4994289;28;20762;-73
2021/04/16 01:31:16;;;;;;;10.10;6.47;;;5.30;98.10;;;;;;4995049;28;20459;-72
2021/04/16 01:33:45;;;;;;;7.70;6.67;;;5.30;98.20;;;;;;4993282;28;20175;-73
2021/04/16 01:36:12;;;;;;;8.20;6.50;;;5.30;98.20;;;;;;5012924;28;20999;-72
2021/04/16 01:38:40;;;;;;;7.90;6.50;;;5.30;98.30;;;;;;5013512;28;20523;-72
2021/04/16 01:41:06;;;;;;;7.90;7.10;;;5.30;98.40;;;;;;5013951;28;20429;-72
2021/04/16 01:43:43;;;;;;;8.77;6.23;;;5.40;98.50;;;;;;5013803;28;20410;-72
2021/04/16 01:46:14;;;;;;;6.60;6.00;;;5.50;98.40;;;;;;5012941;28;20435;-72
2021/04/16 01:48:45;;;;;;;10.90;7.20;;;5.60;98.40;;;;;;5014309;28;20886;-73
2021/04/16 01:51:18;;;;;;;5.97;5.47;;;5.60;98.30;;;;;;5014456;28;20829;-73
2021/04/16 01:53:44;;;;;;;7.93;6.93;;;5.60;98.20;;;;;;5014022;28;20456;-73
2021/04/16 01:56:09;;;;;;;10.53;6.63;;;5.70;98.40;;;;;;5014023;28;20410;-73
2021/04/16 01:58:35;;;;;;;6.73;6.03;;;5.70;98.00;;;;;;5014794;28;20413;-71
2021/04/16 02:01:01;;;;;;;7.20;5.77;;;5.60;98.10;;;;;;5014477;28;20263;-72
2021/04/16 02:03:27;;;;;;;10.47;6.40;;;5.50;98.20;;;;;;5014191;28;20195;-72
2021/04/16 02:05:52;;;;;;;8.30;6.60;;;5.60;98.40;;;;;;5014931;28;20900;-71
2021/04/16 02:08:19;;;;;;;8.67;6.30;;;5.60;98.40;;;;;;5013689;28;20203;-74
2021/04/16 02:10:45;;;;;;;7.57;6.80;;;5.70;98.30;;;;;;5014019;28;20209;-72
2021/04/16 02:13:11;;;;;;;8.90;6.57;;;5.70;98.20;;;;;;5013760;28;20497;-71
2021/04/16 02:15:37;;;;;;;8.57;6.97;;;5.80;98.20;;;;;;5013905;28;20485;-71
2021/04/16 02:18:04;;;;;;;8.17;7.27;;;5.90;98.20;;;;;;5013818;28;20442;-71
2021/04/16 02:20:31;;;;;;;6.47;5.77;;;5.90;98.10;;;;;;5013917;28;20176;-72
2021/04/16 02:22:56;;;;;;;7.60;6.80;;;5.90;98.00;;;;;;5012417;28;20979;-72
2021/04/16 02:25:22;;;;;;;6.90;6.20;;;6.00;97.90;;;;;;5013777;28;20435;-72
2021/04/16 02:27:48;;;;;;;6.63;5.50;;;6.00;97.80;;;;;;5013313;28;20668;-74
2021/04/16 02:30:35;;;;;;;7.23;6.30;;;6.10;97.80;;;;;;5013556;28;20241;-73
2021/04/16 02:33:00;;;;;;;8.70;6.70;;;6.10;97.70;;;;;;5013051;28;20171;-73
2021/04/16 02:35:27;;;;;;;7.37;6.57;;;6.10;97.60;;;;;;5013112;28;20907;-72
2021/04/16 02:37:54;;;;;;;7.40;6.30;;;6.10;97.50;;;;;;5013553;28;20625;-72
2021/04/16 02:40:25;;;;;;;7.93;6.73;;;6.10;97.40;;;;;;5012897;28;20935;-72
2021/04/16 02:42:52;;;;;;;8.53;6.90;;;6.10;97.30;;;;;;5013057;28;20445;-72
2021/04/16 02:45:20;;;;;;;7.83;6.50;;;6.00;97.30;;;;;;5013373;28;20922;-72
2021/04/16 02:47:45;;;;;;;9.10;7.07;;;6.00;97.40;;;;;;5013244;28;20430;-72
2021/04/16 02:50:15;;;;;;;10.13;6.60;;;6.10;97.40;;;;;;5013087;28;20484;-72
2021/04/16 02:52:41;;;;;;;6.83;6.17;;;6.10;97.40;;;;;;5012615;28;20172;-72
2021/04/16 02:55:07;;;;;;;7.17;6.50;;;6.10;97.30;;;;;;5016705;28;20419;-72
2021/04/16 02:57:33;;;;;;;7.87;6.67;;;6.20;97.20;;;;;;5016509;28;20426;-71
2021/04/16 02:59:58;;;;;;;8.50;7.07;;;6.20;97.10;;;;;;5017049;28;20427;-71
2021/04/16 03:02:23;;;;;;;9.30;7.20;;;6.20;97.00;;;;;;5016946;28;20529;-72
2021/04/16 03:04:49;;;;;;;8.27;6.07;;;6.20;96.90;;;;;;5016773;28;20192;-73
2021/04/16 03:07:15;;;;;;;7.40;6.70;;;6.30;96.90;;;;;;5016930;28;20188;-73
2021/04/16 03:09:40;;;;;;;7.10;6.40;;;6.30;96.90;;;;;;5016775;28;20171;-73
2021/04/16 03:12:06;;;;;;;6.87;6.17;;;6.30;96.90;;;;;;5015923;28;20280;-72
2021/04/16 03:14:32;;;;;;;9.93;7.20;;;6.30;96.90;;;;;;5017125;28;20273;-72
2021/04/16 03:16:57;;;;;;;8.33;7.30;;;6.30;97.00;;;;;;5016438;28;20470;-72
2021/04/16 03:19:23;;;;;;;8.73;7.83;;;6.30;97.00;;;;;;5016305;28;20222;-72
2021/04/16 03:21:48;;;;;;;7.73;6.93;;;6.30;97.00;;;;;;5016146;28;20183;-73
2021/04/16 03:24:14;;;;;;;10.47;8.00;;;6.30;96.90;;;;;;5016308;28;20214;-73
2021/04/16 03:26:39;;;;;;;7.50;6.80;;;6.30;96.90;;;;;;5016091;28;20302;-73
2021/04/16 03:29:05;;;;;;;8.03;6.67;;;6.30;96.90;;;;;;5015935;28;20267;-73
2021/04/16 03:31:31;;;;;;;8.37;7.57;;;6.10;96.60;;;;;;5014656;28;20548;-72
2021/04/16 03:33:59;;;;;;;9.57;7.20;;;6.10;96.80;;;;;;5015915;28;20246;-73
2021/04/16 03:36:25;;;;;;;8.63;7.10;;;6.00;97.00;;;;;;5014492;28;20475;-72
2021/04/16 03:38:51;;;;;;;9.63;7.50;;;6.10;97.00;;;;;;5016296;28;20510;-72
2021/04/16 03:41:17;;;;;;;9.37;7.20;;;6.00;97.00;;;;;;5014971;28;20481;-73
2021/04/16 03:43:44;;;;;;;8.57;7.37;;;5.90;97.30;;;;;;5015565;28;20780;-73
2021/04/16 03:46:10;;;;;;;10.90;8.00;;;5.80;97.60;;;;;;5014592;28;20488;-73
2021/04/16 03:48:36;;;;;;;9.60;7.43;;;5.80;98.00;;;;;;5016522;28;20761;-73
2021/04/16 03:51:03;;;;;;;8.43;7.67;;;5.70;98.10;;;;;;5015501;28;20457;-73
2021/04/16 03:53:29;;;;;;;9.57;7.20;;;5.70;98.20;;;;;;5015497;28;20409;-73
2021/04/16 03:55:55;;;;;;;11.57;7.83;;;5.60;98.30;;;;;;5015186;28;20509;-72
2021/04/16 03:58:21;;;;;;;9.70;8.70;;;5.60;98.50;;;;;;5022975;28;20414;-72
2021/04/16 04:00:47;;;;;;;9.23;7.20;;;5.70;98.60;;;;;;5027256;28;20454;-73
2021/04/16 04:03:13;;;;;;;9.63;7.10;;;5.70;98.60;;;;;;5026219;28;20199;-71
2021/04/16 04:05:40;;;;;;;11.70;8.50;;;5.70;98.50;;;;;;5013504;28;20422;-72
2021/04/16 04:08:06;;;;;;;9.93;7.53;;;5.70;98.60;;;;;;5015658;28;20423;-71
2021/04/16 04:10:36;;;;;;;10.50;8.10;;;5.70;98.60;;;;;;5015357;28;20795;-72
2021/04/16 04:13:08;;;;;;;8.80;7.57;;;5.70;98.50;;;;;;5015293;28;20493;-72
2021/04/16 04:15:34;;;;;;;9.20;8.30;;;5.70;98.60;;;;;;5014831;28;20431;-73
2021/04/16 04:18:00;;;;;;;11.77;9.43;;;5.60;98.70;;;;;;5015440;28;20434;-73
2021/04/16 04:20:29;;;;;;;10.13;7.57;;;5.60;98.80;;;;;;5015519;28;20413;-72
2021/04/16 04:22:54;;;;;;;9.60;7.73;;;5.50;98.90;;;;;;5014897;28;20418;-72
2021/04/16 04:25:22;;;;;;;11.20;8.43;;;5.40;99.20;;;;;;5015242;28;20549;-72
2021/04/16 04:27:49;;;;;;;10.03;9.03;;;5.40;99.40;;;;;;5015042;28;20202;-72
2021/04/16 04:30:16;;;;;;;9.97;8.23;;;5.30;99.50;;;;;;5014881;28;20437;-72
2021/04/16 04:32:41;;;;;;;10.23;8.10;;;5.30;99.70;;;;;;5014724;28;20858;-72
2021/04/16 04:35:08;;;;;;;10.07;8.97;;;5.30;99.80;;;;;;5015234;28;20500;-73
2021/04/16 04:37:33;;;;;;;10.83;8.67;;;5.20;99.90;;;;;;5014843;28;20302;-73
2021/04/16 04:39:59;;;;;;;10.60;9.50;;;5.10;99.90;;;;;;5009952;28;20549;-73
2021/04/16 04:42:24;;;;;;;13.47;10.90;;;5.10;99.90;;;;;;5002730;28;20182;-73
2021/04/16 04:44:50;;;;;;;11.80;9.43;;;5.10;99.90;;;;;;4995327;28;20188;-72
2021/04/16 04:47:16;;;;;;;10.57;8.97;;;5.10;99.90;;;;;;5004820;28;20558;-72
2021/04/16 04:49:42;;;;;;;12.50;8.97;;;5.10;99.90;;;;;;5012158;28;20210;-73
2021/04/16 04:52:15;;;;;;;12.70;9.50;;;5.10;99.90;;;;;;5003636;28;20457;-73
2021/04/16 04:54:47;;;;;;;10.13;8.60;;;5.20;99.90;;;;;;5011331;28;20557;-73
2021/04/16 04:57:13;;;;;;;10.13;9.00;;;5.30;99.90;;;;;;5008003;28;20800;-73
2021/04/16 04:59:40;;;;;;;11.17;8.50;;;5.30;99.90;;;;;;5013628;28;20413;-72
2021/04/16 05:02:06;;;;;;;9.17;8.23;;;5.40;99.90;;;;;;5003256;28;20975;-72
2021/04/16 05:04:31;;;;;;;10.80;9.37;;;5.40;99.90;;;;;;4999780;28;20426;-73
2021/04/16 05:06:57;;;;;;;13.97;10.67;;;5.30;99.90;;;;;;4994162;28;20214;-72
2021/04/16 05:09:22;;;;;;;13.20;10.00;;;5.30;99.90;;;;;;5009675;28;20216;-72
2021/04/16 05:11:48;;;;;;;11.70;10.30;;;5.40;99.90;;;;;;4997173;28;20232;-72
2021/04/16 05:14:13;;;;;;;12.03;9.40;;;5.40;99.90;;;;;;4994138;28;20187;-72
2021/04/16 05:16:39;;;;;;;12.10;10.30;;;5.40;99.90;;;;;;4995282;28;20537;-73
2021/04/16 05:19:05;;;;;;;9.43;8.50;;;5.50;99.90;;;;;;5011855;28;20221;-72
2021/04/16 05:21:30;;;;;;;12.70;9.43;;;5.50;99.90;;;;;;5015105;28;20187;-72
2021/04/16 05:23:56;;;;;;;13.73;11.20;;;5.50;99.90;;;;;;5015996;28;20172;-72
2021/04/16 05:26:22;;;;;;;14.40;12.87;;;5.50;99.90;;;;;;4999454;28;20199;-72
2021/04/16 05:28:48;;;;;;;11.33;10.20;;;5.50;99.90;;;;;;4993702;28;20558;-74
2021/04/16 05:31:13;;;;;;;10.83;9.73;;;5.60;99.90;;;;;;5010200;28;20201;-72
2021/04/16 05:33:39;;;;;;;10.43;8.70;;;5.60;99.80;;;;;;5004881;28;20171;-73
2021/04/16 05:36:05;;;;;;;9.17;8.17;;;5.70;99.70;;;;;;5001749;28;20245;-73
2021/04/16 05:38:30;;;;;;;11.00;9.17;;;5.70;99.70;;;;;;4997396;28;20574;-72
2021/04/16 05:40:56;;;;;;;11.23;9.13;;;5.80;99.60;;;;;;4996693;28;20748;-75
2021/04/16 05:43:22;;;;;;;9.83;8.80;;;5.80;99.60;;;;;;5006753;28;20210;-73
2021/04/16 05:45:47;;;;;;;11.07;9.07;;;5.80;99.50;;;;;;5013463;28;20230;-73
2021/04/16 05:48:13;;;;;;;10.53;9.53;;;5.70;99.40;;;;;;5008136;28;20637;-73
2021/04/16 05:50:39;;;;;;;12.73;10.50;;;5.80;99.50;;;;;;5007072;28;20732;-73
2021/04/16 05:53:04;;;;;;;11.70;9.83;;;5.80;99.50;;;;;;5007490;28;20601;-73
2021/04/16 05:55:30;;;;;;;11.60;9.37;;;5.80;99.60;;;;;;5009551;28;20438;-73
2021/04/16 05:57:57;;;;;;;12.00;9.50;;;5.80;99.40;;;;;;5007579;28;20211;-74
2021/04/16 06:00:23;;;;;;;10.63;9.53;;;5.80;99.50;;;;;;5009009;28;20956;-74
2021/04/16 06:02:48;;;;;;;9.17;8.27;;;5.80;99.50;;;;;;5005832;28;21021;-73
2021/04/16 06:05:19;;;;;;;15.37;9.80;;;5.90;99.50;;;;;;5015282;28;20445;-73
2021/04/16 06:07:46;;;;;;;13.27;11.17;;;6.00;99.40;;;;;;5007945;28;20230;-73
2021/04/16 06:10:13;;;;;;;11.90;10.57;;;6.10;99.20;;;;;;5008802;28;20441;-72
2021/04/16 06:12:39;;;;;;;16.00;9.93;;;6.10;99.10;;;;;;5006426;28;20430;-73
2021/04/16 06:15:08;;;;;;;12.70;10.53;;;6.20;99.00;;;;;;5008597;28;20779;-73
2021/04/16 06:17:34;;;;;;;11.27;10.07;;;6.20;99.00;;;;;;5008486;28;20285;-74
2021/04/16 06:20:00;;;;;;;11.37;10.23;;;6.20;99.00;;;;;;5008854;28;20998;-74
2021/04/16 06:22:26;;;;;;;13.50;10.07;;;6.20;99.00;;;;;;5006292;28;20445;-74
2021/04/16 06:24:51;;;;;;;16.03;10.20;;;6.20;98.90;;;;;;5008651;28;20907;-73
2021/04/16 06:27:18;;;;;;;11.20;9.37;;;6.30;98.90;;;;;;5008647;28;20450;-74
2021/04/16 06:29:43;;;;;;;13.30;9.73;;;6.30;98.80;;;;;;5011468;28;20183;-74
2021/04/16 06:32:09;;;;;;;14.30;10.90;;;6.20;98.90;;;;;;5028797;28;20534;-74
2021/04/16 06:34:35;;;;;;;10.90;9.57;;;6.30;99.00;;;;;;5014298;28;20184;-73
2021/04/16 06:37:01;;;;;;;11.80;10.50;;;6.40;99.00;;;;;;5012997;28;20468;-73
2021/04/16 06:39:26;;;;;;;12.23;10.67;;;6.40;98.90;;;;;;5012136;28;20183;-72
2021/04/16 06:41:53;;;;;;;11.60;10.30;;;6.50;98.80;;;;;;5010366;28;20194;-75
2021/04/16 06:44:26;;;;;;;10.97;9.80;;;6.60;98.60;;;;;;5012416;28;20272;-74
2021/04/16 06:47:04;;;;;;;10.47;9.37;;;6.70;98.40;;;;;;5011564;28;20454;-72
2021/04/16 06:49:31;;;;;;;13.80;9.30;;;6.50;98.30;;;;;;5022335;28;20416;-71
2021/04/16 06:52:21;;;;;;;10.40;9.33;;;6.40;98.50;;;;;;5011781;28;20458;-74
2021/04/16 06:54:58;;;;;;;12.23;9.10;;;6.30;98.90;;;;;;5005270;28;20438;-72
2021/04/16 06:57:44;;;;;;;9.13;8.20;;;6.30;99.00;;;;;;5002405;28;20488;-74
2021/04/16 07:00:16;;;;;;;8.87;7.97;;;6.30;98.70;;;;;;5012353;28;20426;-75
2021/04/16 07:02:51;;;;;;;9.10;7.70;;;6.40;98.70;;;;;;5007869;28;20576;-73
2021/04/16 07:05:46;;;;;;;11.67;9.30;;;6.30;98.30;;;;;;5004697;28;20417;-73
2021/04/16 07:08:34;;;;;;;9.43;8.43;;;6.30;98.50;;;;;;5008182;28;20525;-74
2021/04/16 07:11:02;;;;;;;10.77;8.67;;;6.20;98.30;;;;;;5020463;28;20492;-72
2021/04/16 07:13:35;;;;;;;12.17;8.70;;;6.20;98.60;;;;;;5021143;28;20428;-74
2021/04/16 07:16:01;;;;;;;10.63;8.93;;;6.20;98.80;;;;;;5011868;28;20425;-73
2021/04/16 07:18:35;;;;;;;11.60;9.70;;;6.40;99.10;;;;;;5025194;28;20450;-73
2021/04/16 07:21:01;;;;;;;10.97;9.97;;;6.50;98.50;;;;;;5017225;28;20440;-73
2021/04/16 07:23:27;;;;;;;10.67;9.57;;;6.50;97.70;;;;;;5028604;28;20806;-72
2021/04/16 07:26:28;;;;;;;14.33;11.53;;;6.70;97.70;;;;;;5028765;28;20424;-72
2021/04/16 07:28:57;;;;;;;11.37;10.17;;;6.80;97.20;;;;;;5013321;28;20178;-72
2021/04/16 07:31:56;;;;;;;9.70;8.70;;;6.90;96.70;;;;;;5003415;28;20482;-73
2021/04/16 07:34:34;;;;;;;9.67;8.13;;;6.90;96.50;;;;;;4999824;28;20430;-72
2021/04/16 07:37:14;;;;;;;10.27;9.17;;;7.00;96.00;;;;;;5007370;28;20453;-73
2021/04/16 07:39:47;;;;;;;10.13;8.80;;;7.10;96.00;;;;;;5023422;28;20441;-73
2021/04/16 07:42:37;;;;;;;12.93;10.40;;;7.20;95.90;;;;;;5015076;28;20854;-73
2021/04/16 07:45:24;;;;;;;11.30;10.10;;;7.20;95.50;;;;;;5011272;28;20426;-73
2021/04/16 07:48:12;;;;;;;17.13;12.37;;;7.30;95.50;;;;;;5012874;28;20458;-72
2021/04/16 07:50:52;;;;;;;16.70;12.77;;;7.40;95.40;;;;;;5010513;28;20519;-74
2021/04/16 07:53:36;;;;;;;15.63;13.07;;;7.40;95.60;;;;;;5013759;28;20439;-74
2021/04/16 07:56:15;;;;;;;13.00;9.90;;;7.50;95.40;;;;;;5024200;28;20871;-73
2021/04/16 07:58:45;;;;;;;11.43;10.00;;;7.50;95.10;;;;;;5012013;28;20920;-74
2021/04/16 08:01:20;;;;;;;11.80;9.27;;;7.40;95.10;;;;;;5022112;28;20433;-73
2021/04/16 08:03:49;;;;;;;14.40;9.30;;;7.40;95.20;;;;;;5012316;28;20426;-73
2021/04/16 08:06:32;;;;;;;10.37;7.83;;;7.60;95.30;;;;;;5016335;28;20430;-76
2021/04/16 08:08:59;;;;;;;11.83;7.97;;;7.60;95.20;;;;;;5017861;28;20429;-74
2021/04/16 08:11:29;;;;;;;11.67;9.87;;;7.60;94.80;;;;;;5022501;28;20549;-72
2021/04/16 08:14:19;;;;;;;14.03;11.03;;;7.60;94.50;;;;;;5026986;28;20429;-73
2021/04/16 08:17:04;;;;;;;10.07;8.43;;;7.70;94.30;;;;;;5009127;28;20432;-72
2021/04/16 08:19:36;;;;;;;11.07;6.80;;;7.70;94.70;;;;;;5008723;28;20766;-72
2021/04/16 08:22:12;;;;;;;6.80;6.10;;;7.90;94.90;;;;;;5020238;28;21049;-73
2021/04/16 08:24:54;;;;;;;8.53;6.27;;;7.90;94.80;;;;;;5010859;28;20418;-73
2021/04/16 08:27:45;;;;;;;10.53;6.93;;;7.90;94.50;;;;;;5017956;28;20471;-74
2021/04/16 08:30:27;;;;;;;6.83;6.10;;;7.90;94.60;;;;;;5026657;28;20522;-73
2021/04/16 08:33:19;;;;;;;6.70;6.10;;;8.00;94.40;;;;;;5023510;28;20897;-74
2021/04/16 08:35:57;;;;;;;6.53;5.87;;;8.10;94.30;;;;;;4997663;28;20499;-73
2021/04/16 08:38:26;;;;;;;5.87;5.27;;;8.40;93.80;;;;;;5014322;28;20457;-74
2021/04/16 08:40:58;;;;;;;6.17;4.60;;;8.40;92.80;;;;;;5014612;28;20509;-73
2021/04/16 08:43:35;;;;;;;5.07;4.67;;;8.30;92.70;;;;;;5012745;28;20434;-73
2021/04/16 08:46:05;;;;;;;5.13;4.63;;;8.40;92.40;;;;;;5020702;28;20502;-73
2021/04/16 08:48:36;;;;;;;4.70;4.30;;;8.60;92.30;;;;;;5017585;28;20436;-73
2021/04/16 08:51:10;;;;;;;6.23;4.83;;;8.40;92.00;;;;;;5026949;28;20543;-73
2021/04/16 08:53:39;;;;;;;5.60;4.17;;;8.60;92.30;;;;;;5022252;28;20452;-73
2021/04/16 08:56:28;;;;;;;5.53;4.50;;;8.80;91.60;;;;;;5020385;28;20423;-72
2021/04/16 08:58:54;;;;;;;6.47;4.97;;;8.70;91.20;;;;;;5018718;28;20537;-73
2021/04/16 09:01:29;;;;;;;5.70;5.20;;;8.60;91.30;;;;;;5026502;28;20761;-73
2021/04/16 09:04:11;;;;;;;5.27;4.77;;;8.60;91.60;;;;;;5018127;28;20232;-73
2021/04/16 09:06:36;;;;;;;6.83;5.30;;;8.60;91.30;;;;;;5019299;28;20949;-73
2021/04/16 09:09:06;;;;;;;5.87;5.27;;;8.60;91.40;;;;;;5020091;28;20424;-74
2021/04/16 09:11:43;;;;;;;6.30;5.70;;;8.70;91.50;;;;;;5023194;28;20204;-73
2021/04/16 09:14:15;;;;;;;8.03;5.87;;;8.90;91.40;;;;;;5020812;28;20452;-73
2021/04/16 09:16:51;;;;;;;5.03;4.20;;;9.20;91.40;;;;;;5016427;28;20462;-73
2021/04/16 09:19:26;;;;;;;5.27;4.77;;;9.10;90.40;;;;;;5015401;28;20443;-72
2021/04/16 09:22:04;;;;;;;5.93;4.97;;;9.00;90.60;;;;;;5020724;28;20423;-73
2021/04/16 09:24:45;;;;;;;5.20;4.70;;;8.90;90.10;;;;;;5020696;28;20503;-73
2021/04/16 09:27:36;;;;;;;5.70;5.00;;;9.00;90.40;;;;;;5027072;28;20646;-73
2021/04/16 09:30:08;;;;;;;6.20;5.10;;;9.20;90.30;;;;;;5024437;28;20432;-72
2021/04/16 09:32:34;;;;;;;5.70;5.20;;;9.40;89.70;;;;;;5015049;28;20422;-73
2021/04/16 09:35:01;;;;;;;6.30;4.57;;;9.50;88.50;;;;;;5023719;28;20449;-72
2021/04/16 09:37:33;;;;;;;5.23;3.90;;;9.60;88.60;;;;;;5007572;28;20239;-73
2021/04/16 09:40:06;;;;;;;4.73;3.90;;;9.90;88.80;;;;;;5008407;28;20542;-71
2021/04/16 09:42:35;;;;;;;4.63;4.13;;;10.10;85.70;;;;;;5020094;28;20430;-72
2021/04/16 09:45:05;;;;;;;7.30;3.70;;;10.20;83.10;;;;;;5007737;28;20496;-72
2021/04/16 09:47:51;;;;;;;4.10;3.80;;;10.50;83.40;;;;;;5014858;28;20430;-73
2021/04/16 09:50:30;;;;;;;4.53;3.80;;;10.50;80.40;;;;;;5015679;28;20474;-74
2021/04/16 09:53:20;;;;;;;4.40;3.60;;;10.50;79.30;;;;;;5022110;28;20422;-73
2021/04/16 09:56:01;;;;;;;4.80;4.00;;;10.30;78.10;;;;;;5014964;28;20934;-73
2021/04/16 10:00:58;;;;;;;9.03;3.83;;;10.00;79.60;;;;;;5009025;28;21173;-74
2021/04/16 10:03:32;;;;;;;4.10;3.40;;;10.10;78.40;;;;;;5011343;28;20421;-74
2021/04/16 10:06:16;;;;;;;3.77;3.30;;;10.10;78.10;;;;;;5017642;28;20269;-71
2021/04/16 10:08:44;;;;;;;4.77;4.00;;;10.00;76.80;;;;;;5025073;28;20945;-74
2021/04/16 10:11:10;;;;;;;4.10;3.70;;;10.10;77.80;;;;;;5015436;28;20474;-72
2021/04/16 10:13:41;;;;;;;8.23;3.67;;;10.10;76.30;;;;;;5018603;28;20939;-74
2021/04/16 10:16:37;;;;;;;3.50;3.13;;;10.10;76.20;;;;;;5035540;28;20410;-73
2021/04/16 10:19:10;;;;;;;4.33;2.93;;;10.00;74.60;;;;;;5046087;28;20445;-73
2021/04/16 10:21:38;;;;;;;4.10;3.13;;;10.10;74.60;;;;;;5033269;28;20572;-73
2021/04/16 12:38:33;;;;;;;5.70;2.87;;;12.00;58.20;;;;;;5018169;28;20496;-74
2021/04/16 12:41:02;;;;;;;3.20;2.60;;;12.00;59.00;;;;;;5030318;28;20422;-74
2021/04/16 12:43:28;;;;;;;3.60;2.53;;;11.90;59.50;;;;;;5016458;28;20418;-76
2021/04/16 12:45:55;;;;;;;3.30;3.00;;;12.00;59.70;;;;;;5011459;28;20476;-72
2021/04/16 12:48:23;;;;;;;3.17;2.67;;;12.20;61.30;;;;;;5012270;28;20886;-74
2021/04/16 12:50:49;;;;;;;2.17;1.97;;;12.00;57.50;;;;;;5012461;28;20485;-72
2021/04/16 12:53:15;;;;;;;2.80;2.60;;;11.90;56.50;;;;;;5009619;28;20422;-72
2021/04/16 12:55:40;;;;;;;4.13;2.67;;;11.70;56.70;;;;;;5011288;28;20184;-72
2021/04/16 12:58:08;;;;;;;2.93;2.70;;;11.60;57.80;;;;;;5021890;28;20426;-73
2021/04/16 13:00:39;;;;;;;4.57;2.63;;;11.80;58.20;;;;;;5017410;28;20430;-73
2021/04/16 13:03:08;;;;;;;3.10;2.90;;;11.80;57.20;;;;;;5024808;28;20429;-73
2021/04/16 13:05:35;;;;;;;4.67;3.00;;;11.90;57.70;;;;;;5027688;28;20467;-74
2021/04/16 13:08:03;;;;;;;2.87;2.57;;;11.80;56.80;;;;;;5020519;28;20429;-74
2021/04/16 13:10:29;;;;;;;3.20;2.90;;;12.00;57.20;;;;;;5031846;28;20473;-72
2021/04/16 13:12:55;;;;;;;3.40;3.07;;;12.00;56.90;;;;;;5029356;28;20413;-73
2021/04/16 13:15:21;;;;;;;8.17;3.60;;;12.10;57.30;;;;;;5011062;28;20880;-72
2021/04/16 13:18:15;;;;;;;5.70;3.60;;;12.10;58.10;;;;;;5014195;28;20199;-73
2021/04/16 13:20:44;;;;;;;3.20;3.00;;;12.30;58.40;;;;;;5007858;28;20427;-74
2021/04/16 13:23:10;;;;;;;3.43;3.13;;;12.10;58.50;;;;;;5022599;28;20525;-74
2021/04/16 13:25:36;;;;;;;5.10;3.93;;;12.10;58.90;;;;;;5023830;28;20967;-71
2021/04/16 13:28:01;;;;;;;4.10;3.80;;;12.10;58.40;;;;;;5012427;28;20207;-73
2021/04/16 13:30:28;;;;;;;6.00;3.77;;;12.30;58.40;;;;;;5022448;28;20178;-73
2021/04/16 13:32:58;;;;;;;4.33;3.93;;;12.40;58.50;;;;;;5013631;28;20199;-74
2021/04/16 13:35:32;;;;;;;4.60;4.20;;;12.50;58.10;;;;;;5012590;28;20438;-73
2021/04/16 13:38:05;;;;;;;4.00;3.60;;;12.70;58.50;;;;;;5019318;28;20456;-72
2021/04/16 13:40:32;;;;;;;4.03;3.63;;;12.90;58.40;;;;;;5042968;28;20481;-72
2021/04/16 13:42:58;;;;;;;4.40;4.00;;;13.10;58.00;;;;;;5046349;28;20446;-73
2021/04/16 13:45:24;;;;;;;4.23;3.83;;;12.80;57.50;;;;;;5031615;28;20424;-75
2021/04/16 13:47:49;;;;;;;5.57;4.50;;;12.80;58.00;;;;;;5026385;28;20544;-73
2021/04/16 13:50:16;;;;;;;4.40;4.00;;;12.90;58.20;;;;;;5014742;28;20179;-73
2021/04/16 13:52:43;;;;;;;4.93;4.43;;;13.10;58.40;;;;;;5010098;28;20203;-73
2021/04/16 13:55:10;;;;;;;4.80;4.40;;;13.10;57.50;;;;;;5010624;28;20539;-73
2021/04/16 13:57:35;;;;;;;4.43;4.13;;;13.20;57.80;;;;;;5017689;28;20946;-73
2021/04/16 14:00:02;;;;;;;4.07;3.60;;;13.10;57.50;;;;;;5021456;28;20429;-74
2021/04/16 14:02:34;;;;;;;4.33;3.90;;;13.20;57.80;;;;;;5020773;28;20192;-73
2021/04/16 14:05:03;;;;;;;4.87;4.37;;;13.10;57.80;;;;;;5022888;28;20524;-74
2021/04/16 14:07:28;;;;;;;6.23;4.63;;;13.10;58.00;;;;;;5011241;28;20498;-72
2021/04/16 14:09:54;;;;;;;4.80;4.30;;;13.30;58.30;;;;;;5022593;28;20482;-72
2021/04/16 14:12:19;;;;;;;4.57;4.17;;;13.60;58.30;;;;;;5022711;28;20301;-72
2021/04/16 14:14:46;;;;;;;6.47;5.97;;;13.50;57.40;;;;;;5018188;28;20610;-73
2021/04/16 14:17:18;;;;;;;8.00;4.90;;;13.50;57.40;;;;;;5022296;28;20226;-72
2021/04/16 14:19:52;;;;;;;4.07;3.27;;;13.60;57.20;;;;;;5027329;28;20431;-73
2021/04/16 14:22:34;;;;;;;4.60;3.80;;;13.60;56.70;;;;;;5019882;28;20491;-75
2021/04/16 14:25:00;;;;;;;3.97;3.67;;;13.60;56.00;;;;;;5014437;28;20493;-73
2021/04/16 14:27:26;;;;;;;5.27;4.80;;;13.40;55.10;;;;;;5019045;28;20446;-72
2021/04/16 14:29:51;;;;;;;4.13;3.83;;;13.30;55.40;;;;;;5017963;28;20417;-71
2021/04/16 14:32:21;;;;;;;4.10;3.60;;;13.30;56.10;;;;;;5029587;28;20213;-72
2021/04/16 14:34:46;;;;;;;4.67;4.27;;;13.50;56.60;;;;;;5021123;28;20195;-71
2021/04/16 14:37:12;;;;;;;6.83;4.40;;;13.80;56.60;;;;;;5012610;28;20585;-72
2021/04/16 14:39:38;;;;;;;5.63;3.90;;;14.00;56.10;;;;;;5017823;28;20181;-74
2021/04/16 14:42:04;;;;;;;4.87;4.07;;;14.30;55.70;;;;;;5029156;28;20539;-72
2021/04/16 14:44:30;;;;;;;6.80;3.77;;;14.20;55.10;;;;;;5021214;28;20262;-71
2021/04/16 14:46:56;;;;;;;4.10;3.70;;;14.50;55.80;;;;;;5011442;28;20502;-71
2021/04/16 14:49:32;;;;;;;5.20;4.03;;;14.20;54.70;;;;;;5017990;28;20662;-71
2021/04/16 14:52:00;;;;;;;4.57;3.83;;;14.10;55.70;;;;;;5029723;28;20199;-72
2021/04/16 14:54:39;;;;;;;5.00;4.60;;;14.10;55.70;;;;;;5017350;28;20429;-73
2021/04/16 14:57:15;;;;;;;4.63;4.33;;;14.00;54.90;;;;;;5015358;28;20796;-73
2021/04/16 14:59:43;;;;;;;5.17;4.77;;;13.50;55.40;;;;;;5032267;28;20401;-72
2021/04/16 15:02:08;;;;;;;4.77;4.37;;;13.40;55.60;;;;;;5024786;28;21005;-72
2021/04/16 15:04:34;;;;;;;5.30;4.80;;;13.50;55.50;;;;;;5009264;28;20513;-72
2021/04/16 15:07:06;;;;;;;5.70;4.47;;;13.60;55.70;;;;;;5025787;28;20196;-72
2021/04/16 15:09:57;;;;;;;4.27;3.93;;;13.80;55.30;;;;;;5018320;28;20167;-73
2021/04/16 15:12:24;;;;;;;4.00;3.70;;;14.00;54.50;;;;;;5018815;28;20472;-72
2021/04/16 15:14:53;;;;;;;3.97;3.67;;;13.90;53.70;;;;;;5031021;28;20479;-72
2021/04/16 15:17:19;;;;;;;4.20;3.80;;;14.00;54.10;;;;;;5023242;28;20470;-73
2021/04/16 15:19:48;;;;;;;5.23;3.80;;;14.20;54.20;;;;;;5022403;28;20413;-72
2021/04/16 15:22:16;;;;;;;7.00;4.80;;;14.50;54.70;;;;;;5036787;28;20440;-73